Time;durP1;ratioP1;P1;durP2;ratioP2;P2;SDS_P1;SDS_P2;PMS_P1;PMS_P2;Temp;Humidity;BMP_temperature;BMP_pressure;BME280_temperature;BME280_humidity;BME280_pressure;Samples;Min_cycle;Max_cycle;Signal;HPM_P1;HPM_P2
2022/09/21 00:00:54;;;;;;;10.30;3.45;;;11.80;99.90;;;-147.18;100.00;67318.16;5023805;28;20049;-78
2022/09/21 00:04:19;;;;;;;9.27;3.80;;;11.80;99.90;;;-147.18;100.00;67318.16;5016039;28;20033;-78
2022/09/21 00:07:48;;;;;;;13.55;3.42;;;11.80;99.90;;;-147.18;100.00;67318.16;5019152;28;20060;-78
2022/09/21 00:11:16;;;;;;;7.32;3.60;;;11.80;99.90;;;-147.18;100.00;67318.16;5018642;28;20054;-78
2022/09/21 00:14:42;;;;;;;7.95;3.55;;;11.80;99.90;;;-147.18;100.00;67318.16;5011554;28;20048;-78
2022/09/21 00:18:09;;;;;;;6.90;3.50;;;11.70;99.90;;;-147.18;100.00;67318.16;5018150;28;20042;-78
2022/09/21 00:21:36;;;;;;;10.18;3.30;;;11.80;99.90;;;-147.18;100.00;67318.16;5020292;28;20030;-78
2022/09/21 00:25:02;;;;;;;12.43;4.13;;;11.70;99.90;;;-147.18;100.00;67318.16;5018888;28;20044;-78
2022/09/21 00:28:30;;;;;;;8.68;4.05;;;11.70;99.90;;;-147.18;100.00;67318.16;5020729;28;20040;-78
2022/09/21 00:32:00;;;;;;;11.40;4.57;;;11.70;99.90;;;-147.18;100.00;67318.16;5023334;28;20041;-78
2022/09/21 00:35:26;;;;;;;9.23;3.80;;;11.70;99.90;;;-147.18;100.00;67318.16;5014477;28;20494;-78
2022/09/21 00:38:52;;;;;;;8.68;3.67;;;11.60;99.90;;;-147.18;100.00;67318.16;5017033;28;20557;-78
2022/09/21 00:42:20;;;;;;;8.45;3.53;;;11.60;99.90;;;-147.18;100.00;67318.16;5019163;28;20041;-78
2022/09/21 00:45:48;;;;;;;6.93;3.50;;;11.60;99.90;;;-147.18;100.00;67318.16;5020760;28;20067;-78
2022/09/21 00:49:14;;;;;;;8.27;3.47;;;11.60;99.90;;;-147.18;100.00;67318.16;5026640;28;20426;-78
2022/09/21 00:52:42;;;;;;;11.18;3.40;;;11.50;99.90;;;-147.18;100.00;67318.16;5004603;28;20049;-78
2022/09/21 00:56:11;;;;;;;9.55;4.07;;;11.50;99.90;;;-147.18;100.00;67318.16;5025737;28;20036;-78
2022/09/21 00:59:42;;;;;;;7.95;3.17;;;11.50;99.90;;;-147.18;100.00;67318.16;5023786;28;20061;-78
2022/09/21 01:03:11;;;;;;;8.32;3.28;;;11.50;99.90;;;-147.18;100.00;67318.16;5017242;28;20120;-78
2022/09/21 01:06:37;;;;;;;8.88;3.47;;;11.40;99.90;;;-147.18;100.00;67318.16;5021500;28;20038;-78
2022/09/21 01:10:08;;;;;;;6.22;3.20;;;11.40;99.90;;;-147.18;100.00;67318.16;5042734;28;20060;-82
2022/09/21 01:13:51;;;;;;;10.05;3.42;;;11.40;99.90;;;-147.18;100.00;67318.16;5063283;28;20080;-82
2022/09/21 01:17:29;;;;;;;8.35;3.45;;;11.30;99.90;;;-147.18;100.00;67318.16;5039184;28;20662;-82
2022/09/21 01:21:38;;;;;;;8.02;3.20;;;11.30;99.90;;;-147.18;100.00;67318.16;5031793;28;20041;-82
2022/09/21 01:25:37;;;;;;;5.57;3.30;;;11.30;99.90;;;-147.18;100.00;67318.16;5020260;28;20042;-82
2022/09/21 01:29:16;;;;;;;16.10;3.13;;;11.40;99.90;;;-147.18;100.00;67318.16;5035406;28;20046;-82
2022/09/21 01:32:52;;;;;;;8.13;2.97;;;11.20;99.90;;;-147.18;100.00;67318.16;5022218;28;20056;-82
2022/09/21 01:36:24;;;;;;;7.13;2.72;;;11.20;99.90;;;-147.18;100.00;67318.16;5019666;28;20037;-82
2022/09/21 01:39:59;;;;;;;11.18;3.40;;;11.20;99.90;;;-147.18;100.00;67318.16;5027335;28;20042;-82
2022/09/21 01:43:27;;;;;;;5.63;3.28;;;11.20;99.90;;;-147.18;100.00;67318.16;5031884;28;20049;-82
2022/09/21 01:46:56;;;;;;;6.55;3.20;;;11.20;99.90;;;-147.18;100.00;67318.16;5032214;28;20037;-82
2022/09/21 01:50:25;;;;;;;8.18;3.40;;;11.20;99.90;;;-147.18;100.00;67318.16;5019271;28;20041;-82
2022/09/21 01:53:56;;;;;;;8.80;3.60;;;11.10;99.90;;;-147.18;100.00;67318.16;5012042;28;20046;-82
2022/09/21 01:57:29;;;;;;;9.05;3.47;;;11.20;99.90;;;-147.18;100.00;67318.16;5036197;28;20041;-82
2022/09/21 02:00:58;;;;;;;8.85;3.25;;;11.10;99.90;;;-147.18;100.00;67318.16;5013407;28;20046;-82
2022/09/21 02:04:27;;;;;;;6.47;2.97;;;11.10;99.90;;;-147.18;100.00;67318.16;5012054;28;20069;-82
2022/09/21 02:07:53;;;;;;;6.82;3.35;;;11.10;99.90;;;-147.18;100.00;67318.16;5038687;28;20152;-82
2022/09/21 02:11:23;;;;;;;8.75;3.58;;;11.10;99.90;;;-147.18;100.00;67318.16;5019734;28;20096;-82
2022/09/21 02:14:54;;;;;;;8.77;3.80;;;11.00;99.90;;;-147.18;100.00;67318.16;5010395;28;20499;-82
2022/09/21 02:18:39;;;;;;;7.28;2.70;;;11.00;99.90;;;-147.18;100.00;67318.16;5039680;28;20042;-82
2022/09/21 02:22:09;;;;;;;8.40;3.10;;;10.90;99.90;;;-147.18;100.00;67318.16;5022696;28;20637;-82
2022/09/21 02:25:46;;;;;;;5.35;3.00;;;10.90;99.90;;;-147.18;100.00;67318.16;5019291;28;20140;-82
2022/09/21 02:29:24;;;;;;;6.88;3.20;;;10.90;99.90;;;-147.18;100.00;67318.16;5040644;28;20046;-82
2022/09/21 02:33:00;;;;;;;8.38;3.10;;;10.80;99.90;;;-147.18;100.00;67318.16;5026608;28;20445;-82
2022/09/21 02:36:34;;;;;;;9.07;3.25;;;10.80;99.90;;;-147.18;100.00;67318.16;5023302;28;20062;-82
2022/09/21 02:40:08;;;;;;;6.72;2.90;;;10.80;99.90;;;-147.18;100.00;67318.16;5020901;28;20051;-82
2022/09/21 02:43:39;;;;;;;7.90;3.50;;;10.80;99.90;;;-147.18;100.00;67318.16;5036578;28;20553;-82
2022/09/21 02:47:12;;;;;;;6.28;3.08;;;10.70;99.90;;;-147.18;100.00;67318.16;5037795;28;20067;-82
2022/09/21 02:50:44;;;;;;;8.68;3.33;;;10.70;99.90;;;-147.18;100.00;67318.16;5029923;28;20042;-82
2022/09/21 02:54:12;;;;;;;5.47;2.90;;;10.70;99.90;;;-147.18;100.00;67318.16;5029056;28;20042;-82
2022/09/21 02:57:39;;;;;;;8.18;3.17;;;10.70;99.90;;;-147.18;100.00;67318.16;5031080;28;20041;-82
2022/09/21 03:01:07;;;;;;;8.70;3.22;;;10.60;99.90;;;-147.18;100.00;67318.16;5036327;28;20053;-82
2022/09/21 03:04:33;;;;;;;7.00;2.90;;;10.60;99.90;;;-147.18;100.00;67318.16;5015951;28;20087;-82
2022/09/21 03:08:00;;;;;;;10.98;3.17;;;10.60;99.90;;;-147.18;100.00;67318.16;5031345;28;20038;-82
2022/09/21 03:11:26;;;;;;;8.02;3.45;;;10.50;99.90;;;-147.18;100.00;67318.16;5022867;28;20052;-82
2022/09/21 03:14:52;;;;;;;9.23;3.03;;;10.50;99.90;;;-147.18;100.00;67318.16;5018796;28;20398;-82
2022/09/21 03:18:17;;;;;;;6.78;3.08;;;10.50;99.90;;;-147.18;100.00;67318.16;5037076;28;20552;-82
2022/09/21 03:21:44;;;;;;;9.93;2.90;;;10.50;99.90;;;-147.18;100.00;67318.16;5014864;28;20045;-82
2022/09/21 03:25:11;;;;;;;5.82;3.15;;;10.50;99.90;;;-147.18;100.00;67318.16;5009978;28;20048;-82
2022/09/21 03:28:37;;;;;;;4.82;2.83;;;10.50;99.90;;;-147.18;100.00;67318.16;5032782;28;20072;-82
2022/09/21 03:32:03;;;;;;;5.95;2.97;;;10.50;99.90;;;-147.18;100.00;67318.16;5019964;28;20049;-82
2022/09/21 03:35:28;;;;;;;8.20;3.08;;;10.50;99.90;;;-147.18;100.00;67318.16;5028770;28;20033;-82
2022/09/21 03:38:54;;;;;;;8.25;2.72;;;10.50;99.90;;;-147.18;100.00;67318.16;5037766;28;20448;-82
2022/09/21 03:42:21;;;;;;;4.63;2.65;;;10.40;99.90;;;-147.18;100.00;67318.16;5018143;28;20042;-82
2022/09/21 03:45:47;;;;;;;4.65;2.65;;;10.40;99.90;;;-147.18;100.00;67318.16;5014678;28;20045;-82
2022/09/21 03:49:13;;;;;;;5.50;3.10;;;10.40;99.90;;;-147.18;100.00;67318.16;5036563;28;20041;-82
2022/09/21 03:52:39;;;;;;;6.25;2.90;;;10.40;99.90;;;-147.18;100.00;67318.16;5019942;28;20053;-82
2022/09/21 03:56:06;;;;;;;5.85;2.50;;;10.30;99.90;;;-147.18;100.00;67318.16;5020048;28;20458;-82
2022/09/21 03:59:34;;;;;;;6.40;3.47;;;10.30;99.90;;;-147.18;100.00;67318.16;5032092;28;20045;-82
2022/09/21 04:03:00;;;;;;;6.28;3.30;;;10.30;99.90;;;-147.18;100.00;67318.16;5020228;28;20486;-82
2022/09/21 04:06:26;;;;;;;7.60;2.83;;;10.30;99.90;;;-147.18;100.00;67318.16;5022197;28;20382;-82
2022/09/21 04:09:52;;;;;;;7.63;3.22;;;10.20;99.90;;;-147.18;100.00;67318.16;5032909;28;20045;-83
2022/09/21 04:13:21;;;;;;;7.18;3.17;;;10.20;99.90;;;-147.18;100.00;67318.16;5025673;28;20107;-82
2022/09/21 04:16:48;;;;;;;7.78;2.72;;;10.20;99.90;;;-147.18;100.00;67318.16;5034017;28;20040;-84
2022/09/21 04:20:14;;;;;;;5.63;2.95;;;10.20;99.90;;;-147.18;100.00;67318.16;5046684;28;20041;-87
2022/09/21 04:23:40;;;;;;;9.32;2.90;;;10.20;99.90;;;-147.18;100.00;67318.16;5022299;28;20042;-88
2022/09/21 04:27:06;;;;;;;4.97;2.63;;;10.20;99.90;;;-147.18;100.00;67318.16;5014418;28;20041;-86
2022/09/21 04:30:32;;;;;;;7.55;2.70;;;10.10;99.90;;;-147.18;100.00;67318.16;5039339;28;20701;-87
2022/09/21 04:33:59;;;;;;;6.95;2.90;;;10.10;99.90;;;-147.18;100.00;67318.16;5025499;28;20136;-86
2022/09/21 04:37:27;;;;;;;5.25;2.60;;;10.10;99.90;;;-147.18;100.00;67318.16;5023171;28;20037;-87
2022/09/21 04:40:56;;;;;;;5.82;3.10;;;10.10;99.90;;;-147.18;100.00;67318.16;5009792;28;20054;-86
2022/09/21 04:44:21;;;;;;;5.68;2.80;;;10.10;99.90;;;-147.18;100.00;67318.16;5024011;28;20034;-87
2022/09/21 04:47:47;;;;;;;6.45;3.20;;;10.10;99.90;;;-147.18;100.00;67318.16;5026775;28;20046;-88
2022/09/21 04:51:15;;;;;;;6.68;2.88;;;10.10;99.90;;;-147.18;100.00;67318.16;5037227;28;20040;-86
2022/09/21 04:54:41;;;;;;;6.35;2.88;;;10.10;99.90;;;-147.18;100.00;67318.16;5028963;28;20600;-87
2022/09/21 04:58:08;;;;;;;5.05;2.90;;;10.10;99.90;;;-147.18;100.00;67318.16;5038691;28;20049;-87
2022/09/21 05:01:34;;;;;;;5.68;2.90;;;10.10;99.90;;;-147.18;100.00;67318.16;5013212;28;20509;-87
2022/09/21 05:05:00;;;;;;;7.05;3.35;;;10.00;99.90;;;-147.18;100.00;67318.16;5024077;28;20038;-88
2022/09/21 05:12:12;;;;;;;4.90;2.70;;;9.90;99.90;;;-147.18;100.00;67318.16;5034091;28;20045;-88
2022/09/21 05:15:38;;;;;;;4.53;2.92;;;9.90;99.90;;;-147.18;100.00;67318.16;5019541;28;20413;-87
2022/09/21 05:19:04;;;;;;;6.57;2.90;;;9.90;99.90;;;-147.18;100.00;67318.16;5048472;28;20103;-88
2022/09/21 05:22:31;;;;;;;6.40;3.53;;;9.90;99.90;;;-147.18;100.00;67318.16;5035675;28;20098;-83
2022/09/21 05:25:58;;;;;;;6.50;2.92;;;9.80;99.90;;;-147.18;100.00;67318.16;5051661;28;20052;-83
2022/09/21 05:29:24;;;;;;;6.45;3.45;;;9.80;99.90;;;-147.18;100.00;67318.16;5028129;28;20409;-83
2022/09/21 05:32:56;;;;;;;7.50;3.30;;;9.80;99.90;;;-147.18;100.00;67318.16;5028806;28;20073;-85
2022/09/21 05:36:34;;;;;;;6.43;3.30;;;9.90;99.90;;;-147.18;100.00;67318.16;5030904;28;20045;-83
2022/09/21 05:40:02;;;;;;;8.35;3.40;;;9.80;99.90;;;-147.18;100.00;67318.16;5029196;28;20406;-83
2022/09/21 05:43:29;;;;;;;5.82;3.55;;;9.80;99.90;;;-147.18;100.00;67318.16;5014609;28;20499;-83
2022/09/21 05:47:03;;;;;;;10.77;3.30;;;9.80;99.90;;;-147.18;100.00;67318.16;5018878;28;20038;-83
2022/09/21 05:50:44;;;;;;;6.80;3.70;;;9.80;99.90;;;-147.18;100.00;67318.16;5034720;28;20044;-83
2022/09/21 05:54:59;;;;;;;9.43;4.30;;;9.80;99.90;;;-147.18;100.00;67318.16;5052037;28;20052;-83
2022/09/21 05:58:40;;;;;;;9.32;4.57;;;9.80;99.90;;;-147.18;100.00;67318.16;5012088;28;20049;-83
2022/09/21 06:02:23;;;;;;;7.60;4.13;;;9.90;99.90;;;-147.18;100.00;67318.16;5038100;28;20053;-83
2022/09/21 06:05:49;;;;;;;11.02;4.35;;;9.90;99.90;;;-147.18;100.00;67318.16;5035179;28;20049;-83
2022/09/21 06:09:15;;;;;;;7.65;4.20;;;9.90;99.90;;;-147.18;100.00;67318.16;5017539;28;20037;-83
2022/09/21 06:12:42;;;;;;;8.50;3.95;;;9.90;99.90;;;-147.18;100.00;67318.16;5022728;28;20034;-83
2022/09/21 06:16:11;;;;;;;8.07;4.03;;;10.00;99.90;;;-147.18;100.00;67318.16;5019153;28;20049;-83
2022/09/21 06:19:37;;;;;;;12.55;4.13;;;10.10;99.90;;;-147.18;100.00;67318.16;5026449;28;20043;-83
2022/09/21 06:23:03;;;;;;;14.98;4.50;;;10.10;99.90;;;-147.18;100.00;67318.16;5029302;28;20042;-83
2022/09/21 06:26:29;;;;;;;13.05;4.40;;;10.20;99.90;;;-147.18;100.00;67318.16;5028402;28;20049;-83
2022/09/21 06:29:56;;;;;;;16.23;5.43;;;10.30;99.90;;;-147.18;100.00;67318.16;5036127;28;20416;-83
2022/09/21 06:33:22;;;;;;;17.23;4.85;;;10.30;99.90;;;-147.18;100.00;67318.16;5015390;28;20524;-83
2022/09/21 06:36:52;;;;;;;17.23;4.60;;;10.40;99.90;;;-147.18;100.00;67318.16;5030115;28;20077;-83
2022/09/21 06:40:18;;;;;;;14.00;5.32;;;10.50;99.90;;;-147.18;100.00;67318.16;5029599;28;20056;-83
2022/09/21 06:43:43;;;;;;;9.57;4.90;;;10.60;99.90;;;-147.18;100.00;67318.16;5016586;28;20060;-83
2022/09/21 06:47:10;;;;;;;10.85;4.53;;;10.60;99.90;;;-147.18;100.00;67318.16;5042737;28;20409;-83
2022/09/21 06:50:36;;;;;;;13.20;4.93;;;10.70;99.90;;;-147.18;100.00;67318.16;5011044;28;20052;-83
2022/09/21 06:54:02;;;;;;;15.73;4.95;;;10.70;99.90;;;-147.18;100.00;67318.16;5019000;28;20042;-83
2022/09/21 06:57:27;;;;;;;15.15;4.82;;;10.80;99.90;;;-147.18;100.00;67318.16;5027751;28;20048;-83
2022/09/21 07:00:53;;;;;;;14.10;5.30;;;10.90;99.90;;;-147.18;100.00;67318.16;5035405;28;20049;-83
2022/09/21 07:04:23;;;;;;;14.07;5.93;;;11.00;99.90;;;-147.18;100.00;67318.16;5021527;28;20051;-83
2022/09/21 07:07:49;;;;;;;11.60;4.38;;;11.10;99.90;;;-147.18;100.00;67318.16;5046590;23;20021;-79
2022/09/21 07:11:15;;;;;;;10.73;5.38;;;11.20;99.90;;;-147.18;100.00;67318.16;5012292;28;20410;-79
2022/09/21 07:14:43;;;;;;;9.82;4.68;;;11.30;99.90;;;-147.18;100.00;67318.16;5026012;28;20037;-79
2022/09/21 07:18:12;;;;;;;15.88;5.43;;;11.40;99.90;;;-147.18;100.00;67318.16;5024643;28;20390;-79
2022/09/21 07:21:39;;;;;;;17.95;5.63;;;11.50;99.90;;;-147.18;100.00;67318.16;5009772;28;20494;-79
2022/09/21 07:25:06;;;;;;;17.75;6.88;;;11.60;99.90;;;-147.18;100.00;67318.16;5001602;28;20038;-79
2022/09/21 07:28:32;;;;;;;12.07;5.57;;;11.60;99.90;;;-147.18;100.00;67318.16;5022707;28;20520;-79
2022/09/21 07:32:04;;;;;;;12.48;5.85;;;11.70;99.90;;;-147.18;100.00;67318.16;4990765;28;20046;-79
2022/09/21 07:35:34;;;;;;;15.35;6.45;;;11.80;99.90;;;-147.18;100.00;67318.16;4991573;28;20109;-79
2022/09/21 07:39:03;;;;;;;16.20;6.40;;;11.90;99.90;;;-147.18;100.00;67318.16;5002613;28;20046;-79
2022/09/21 07:42:29;;;;;;;12.30;6.18;;;12.00;99.90;;;-147.18;100.00;67318.16;5007504;28;20061;-79
2022/09/21 07:45:55;;;;;;;14.15;5.90;;;12.10;99.90;;;-147.18;100.00;67318.16;4994951;28;20050;-79
2022/09/21 07:49:21;;;;;;;12.40;5.72;;;12.20;99.90;;;-147.18;100.00;67318.16;4998852;28;20563;-79
2022/09/21 07:52:46;;;;;;;14.32;6.25;;;12.30;99.90;;;-147.18;100.00;67318.16;5008084;28;20053;-79
2022/09/21 07:56:14;;;;;;;17.23;6.90;;;12.40;99.90;;;-147.18;100.00;67318.16;5001010;28;20046;-79
2022/09/21 07:59:39;;;;;;;16.02;6.00;;;12.50;99.90;;;-147.18;100.00;67318.16;5008529;28;20037;-79
2022/09/21 08:03:06;;;;;;;16.63;5.60;;;12.60;99.90;;;-147.18;100.00;67318.16;4997504;28;20077;-79
2022/09/21 08:06:32;;;;;;;10.68;5.47;;;12.70;99.90;;;-147.18;100.00;67318.16;4979639;28;20049;-79
2022/09/21 08:09:58;;;;;;;11.07;5.07;;;12.80;99.90;;;-147.18;100.00;67318.16;4997451;28;20042;-79
2022/09/21 08:13:25;;;;;;;11.55;4.40;;;12.80;99.90;;;-147.18;100.00;67318.16;5006874;28;20498;-79
2022/09/21 08:16:56;;;;;;;10.50;4.97;;;12.90;99.90;;;-147.18;100.00;67318.16;5019670;28;20046;-79
2022/09/21 08:20:28;;;;;;;8.63;3.40;;;13.00;99.90;;;-147.18;100.00;67318.16;5007964;28;20053;-79
2022/09/21 08:23:54;;;;;;;8.95;3.30;;;13.10;99.90;;;-147.18;100.00;67318.16;5024153;28;20077;-79
2022/09/21 08:27:20;;;;;;;9.00;2.90;;;13.20;99.90;;;-147.18;100.00;67318.16;4998403;28;20517;-79
2022/09/21 08:30:47;;;;;;;5.63;2.10;;;13.30;99.90;;;-147.18;100.00;67318.16;5005342;28;20538;-80
2022/09/21 08:34:13;;;;;;;6.78;2.10;;;13.40;99.90;;;-147.18;100.00;67318.16;5018996;28;20041;-78
2022/09/21 08:37:38;;;;;;;6.38;1.63;;;13.40;99.90;;;-147.18;100.00;67318.16;5028590;28;20103;-78
2022/09/21 08:41:13;;;;;;;8.32;1.92;;;13.60;99.90;;;-147.18;100.00;67318.16;5004410;28;20044;-79
2022/09/21 08:44:42;;;;;;;5.75;2.00;;;13.60;99.90;;;-147.18;100.00;67318.16;5020351;28;20041;-79
2022/09/21 08:48:18;;;;;;;8.80;1.95;;;13.70;99.90;;;-147.18;100.00;67318.16;5013007;28;20052;-79
2022/09/21 08:51:49;;;;;;;7.13;1.85;;;13.70;99.90;;;-147.18;100.00;67318.16;4999472;28;20052;-79
2022/09/21 08:55:20;;;;;;;5.57;1.33;;;13.80;99.90;;;-147.18;100.00;67318.16;5002707;28;20041;-78
2022/09/21 08:58:46;;;;;;;6.18;1.60;;;13.90;99.90;;;-147.18;100.00;67318.16;5020596;28;20045;-79
2022/09/21 09:02:38;;;;;;;6.97;1.25;;;13.90;99.90;;;-147.18;100.00;67318.16;5028866;28;20379;-79
2022/09/21 09:06:21;;;;;;;5.47;1.50;;;14.00;99.90;;;-147.18;100.00;67318.16;5006680;28;20395;-79
2022/09/21 09:10:07;;;;;;;6.40;1.63;;;14.00;99.90;;;-147.18;100.00;67318.16;5017024;28;20159;-79
2022/09/21 09:14:00;;;;;;;5.47;1.77;;;14.10;99.90;;;-147.18;100.00;67318.16;5014914;28;20057;-79
2022/09/21 09:17:39;;;;;;;5.70;1.50;;;14.20;99.90;;;-147.18;100.00;67318.16;5009203;28;20045;-79
2022/09/21 09:21:12;;;;;;;4.82;1.15;;;14.30;99.90;;;-147.18;100.00;67318.16;5008957;28;20046;-78
2022/09/21 09:24:45;;;;;;;7.88;1.92;;;14.30;99.90;;;-147.18;100.00;67318.16;5017706;28;20516;-79
2022/09/21 09:28:22;;;;;;;5.38;1.38;;;14.30;99.90;;;-147.18;100.00;67318.16;4989411;28;20054;-79
2022/09/21 09:31:54;;;;;;;4.30;1.23;;;14.40;99.90;;;-147.18;100.00;67318.16;4989398;28;20053;-79
2022/09/21 09:35:26;;;;;;;5.43;1.00;;;14.50;99.90;;;-147.18;100.00;67318.16;5008550;28;20109;-79
2022/09/21 09:38:56;;;;;;;5.30;1.20;;;14.60;99.90;;;-147.18;100.00;67318.16;5008875;28;20686;-79
2022/09/21 09:42:41;;;;;;;5.82;1.30;;;14.60;99.90;;;-147.18;100.00;67318.16;5007247;28;20046;-79
2022/09/21 09:46:23;;;;;;;7.13;1.35;;;14.60;99.90;;;-147.18;100.00;67318.16;5018606;28;20050;-79
2022/09/21 09:50:10;;;;;;;4.85;1.50;;;14.60;99.90;;;-147.18;100.00;67318.16;4994524;28;20340;-79
2022/09/21 09:53:37;;;;;;;4.28;1.40;;;14.60;99.90;;;-147.18;100.00;67318.16;5022505;28;20081;-79
2022/09/21 09:57:03;;;;;;;6.93;1.50;;;14.70;99.90;;;-147.18;100.00;67318.16;5009193;28;20052;-79
2022/09/21 10:00:33;;;;;;;3.80;1.17;;;14.70;99.90;;;-147.18;100.00;67318.16;5012074;28;20588;-79
2022/09/21 10:04:04;;;;;;;6.28;1.50;;;14.70;99.90;;;-147.18;100.00;67318.16;5024181;28;20060;-79
2022/09/21 10:07:39;;;;;;;8.95;1.55;;;14.70;99.90;;;-147.18;100.00;67318.16;4973869;28;20519;-79
2022/09/21 10:11:34;;;;;;;6.07;1.50;;;14.70;99.90;;;-147.18;100.00;67318.16;4992574;28;20044;-79
2022/09/21 10:15:10;;;;;;;11.10;1.77;;;14.80;99.90;;;-147.18;100.00;67318.16;5018174;28;20080;-79
2022/09/21 10:18:38;;;;;;;4.75;1.13;;;14.80;99.90;;;-147.18;100.00;67318.16;5031579;28;20038;-79
2022/09/21 10:22:15;;;;;;;5.93;1.25;;;14.80;99.90;;;-147.18;100.00;67318.16;5011083;28;20046;-79
2022/09/21 10:25:52;;;;;;;6.75;1.30;;;14.80;99.90;;;-147.18;100.00;67318.16;5018800;28;20419;-79
2022/09/21 10:29:27;;;;;;;10.20;1.75;;;14.80;99.90;;;-147.18;100.00;67318.16;5011510;28;20049;-79
2022/09/21 10:32:55;;;;;;;8.32;1.60;;;14.90;99.90;;;-147.18;100.00;67318.16;5024653;28;20120;-79
2022/09/21 10:36:32;;;;;;;10.40;1.20;;;14.90;99.90;;;-147.18;100.00;67318.16;5030406;28;20045;-79
2022/09/21 10:40:25;;;;;;;11.05;1.20;;;15.00;99.20;;;-147.18;100.00;67318.16;5031141;28;20044;-79
2022/09/21 10:43:53;;;;;;;3.67;1.08;;;15.10;98.10;;;-147.18;100.00;67318.16;5019283;28;20046;-79
2022/09/21 10:47:34;;;;;;;5.57;1.33;;;15.10;97.90;;;-147.18;100.00;67318.16;5011935;28;20045;-79
2022/09/21 10:51:02;;;;;;;5.55;1.20;;;15.20;98.10;;;-147.18;100.00;67318.16;5022623;28;20041;-78
2022/09/21 10:54:32;;;;;;;5.82;1.50;;;15.20;98.90;;;-147.18;100.00;67318.16;5030908;28;20042;-79
2022/09/21 10:58:01;;;;;;;4.57;1.20;;;15.20;98.00;;;-147.18;100.00;67318.16;5026905;28;20042;-78
2022/09/21 11:01:30;;;;;;;6.22;1.30;;;15.30;97.50;;;-147.18;100.00;67318.16;5016200;28;20754;-79
2022/09/21 11:05:01;;;;;;;3.58;1.15;;;15.30;97.50;;;-147.18;100.00;67318.16;4973783;28;20042;-78
2022/09/21 11:08:32;;;;;;;7.68;1.08;;;15.40;96.50;;;-147.18;100.00;67318.16;5000067;28;20052;-78
2022/09/21 11:12:15;;;;;;;16.27;4.32;;;15.40;95.90;;;-147.18;100.00;67318.16;5027723;28;20038;-78
2022/09/21 11:15:51;;;;;;;6.70;1.55;;;15.60;96.30;;;-147.18;100.00;67318.16;5029731;28;20128;-79
2022/09/21 11:19:25;;;;;;;6.90;1.45;;;15.50;96.60;;;-147.18;100.00;67318.16;5007845;28;20475;-79
2022/09/21 11:22:59;;;;;;;5.13;1.20;;;15.40;96.80;;;-147.18;100.00;67318.16;4991199;28;20066;-79
2022/09/21 11:26:43;;;;;;;6.38;1.48;;;15.40;96.40;;;-147.18;100.00;67318.16;4995231;28;20048;-78
2022/09/21 11:30:14;;;;;;;7.80;1.25;;;15.50;97.20;;;-147.18;100.00;67318.16;4999019;28;20042;-78
2022/09/21 11:34:12;;;;;;;6.28;1.00;;;15.50;97.10;;;-147.18;100.00;67318.16;5011879;28;20048;-78
2022/09/21 11:37:50;;;;;;;6.30;1.45;;;15.50;96.30;;;-147.18;100.00;67318.16;5003322;28;20052;-79
2022/09/21 11:41:47;;;;;;;3.30;1.05;;;15.60;94.80;;;-147.18;100.00;67318.16;4989878;28;20050;-79
2022/09/21 11:45:28;;;;;;;6.53;1.42;;;15.60;94.80;;;-147.18;100.00;67318.16;5020930;28;20447;-78
2022/09/21 11:49:18;;;;;;;6.10;1.27;;;15.60;95.70;;;-147.18;100.00;67318.16;5001816;28;20041;-78
2022/09/21 11:53:02;;;;;;;8.48;1.05;;;15.70;95.20;;;-147.18;100.00;67318.16;5009827;28;20140;-79
2022/09/21 11:56:52;;;;;;;5.95;1.15;;;15.70;94.80;;;-147.18;100.00;67318.16;5009097;28;20125;-79
2022/09/21 12:00:47;;;;;;;6.47;1.08;;;15.70;94.20;;;-147.18;100.00;67318.16;5009402;28;20120;-79
2022/09/21 12:04:48;;;;;;;6.50;1.20;;;15.80;92.50;;;-147.18;100.00;67318.16;5000199;28;20738;-79
2022/09/21 12:08:50;;;;;;;6.40;1.20;;;15.80;91.80;;;-147.18;100.00;67318.16;5007532;28;20522;-79
2022/09/21 12:12:37;;;;;;;6.18;1.20;;;15.90;91.50;;;-147.18;100.00;67318.16;5018945;28;20099;-78
2022/09/21 12:16:18;;;;;;;6.35;0.80;;;15.90;90.80;;;-147.18;100.00;67318.16;5000393;28;20038;-78
2022/09/21 12:20:02;;;;;;;6.82;1.65;;;15.90;91.40;;;-147.18;100.00;67318.16;5009307;28;20046;-78
2022/09/21 12:23:36;;;;;;;6.85;1.30;;;16.00;90.00;;;-147.18;100.00;67318.16;5019679;28;20033;-78
2022/09/21 12:27:07;;;;;;;4.85;1.15;;;16.00;90.70;;;-147.18;100.00;67318.16;4990997;28;20085;-79
2022/09/21 12:30:39;;;;;;;5.32;1.10;;;16.00;90.90;;;-147.18;100.00;67318.16;5009330;28;20050;-79
2022/09/21 12:34:14;;;;;;;4.68;1.00;;;16.00;90.30;;;-147.18;100.00;67318.16;5006407;28;20056;-79
2022/09/21 12:37:46;;;;;;;5.47;1.00;;;16.00;90.20;;;-147.18;100.00;67318.16;5002258;28;20050;-79
2022/09/21 12:41:21;;;;;;;4.72;0.98;;;16.00;89.40;;;-147.18;100.00;67318.16;5000466;28;20035;-79
2022/09/21 12:44:59;;;;;;;3.22;0.90;;;16.10;88.20;;;-147.18;100.00;67318.16;5000308;28;20116;-78
2022/09/21 12:48:33;;;;;;;4.68;1.00;;;16.00;85.90;;;-147.18;100.00;67318.16;5006721;28;20037;-78
2022/09/21 12:52:11;;;;;;;3.90;1.15;;;16.00;86.60;;;-147.18;100.00;67318.16;4992614;28;20515;-79
2022/09/21 12:55:51;;;;;;;3.65;1.08;;;16.10;88.70;;;-147.18;100.00;67318.16;5010777;28;20478;-78
2022/09/21 12:59:45;;;;;;;6.15;1.30;;;16.10;89.20;;;-147.18;100.00;67318.16;5005313;28;20108;-78
2022/09/21 13:03:29;;;;;;;6.00;1.67;;;16.20;89.30;;;-147.18;100.00;67318.16;5018189;28;20124;-79
2022/09/21 13:07:37;;;;;;;6.32;1.52;;;16.20;88.60;;;-147.18;100.00;67318.16;5004603;28;20044;-79
2022/09/21 13:11:19;;;;;;;4.18;0.90;;;16.20;89.50;;;-147.18;100.00;67318.16;4999469;28;20052;-80
2022/09/21 13:14:54;;;;;;;6.25;1.40;;;16.20;88.90;;;-147.18;100.00;67318.16;5006376;28;20449;-82
2022/09/21 13:18:36;;;;;;;3.17;1.13;;;16.30;87.70;;;-147.18;100.00;67318.16;5357336;22;20024;-79
2022/09/21 13:22:30;;;;;;;2.95;1.10;;;16.30;87.60;;;-147.18;100.00;67318.16;5031787;28;20482;-83
2022/09/21 13:26:04;;;;;;;6.88;1.50;;;16.30;88.00;;;-147.18;100.00;67318.16;5019842;28;20044;-78
2022/09/21 13:30:12;;;;;;;4.20;1.23;;;16.30;88.60;;;-147.18;100.00;67318.16;5013694;28;20550;-79
2022/09/21 13:34:13;;;;;;;7.18;1.17;;;16.40;88.30;;;-147.18;100.00;67318.16;5022946;28;20038;-79
2022/09/21 13:38:02;;;;;;;5.55;1.27;;;16.40;87.80;;;-147.18;100.00;67318.16;5008536;28;20049;-79
2022/09/21 13:41:37;;;;;;;4.07;1.02;;;16.40;87.60;;;-147.18;100.00;67318.16;5011557;28;20058;-79
2022/09/21 13:45:37;;;;;;;4.50;1.50;;;16.40;86.10;;;-147.18;100.00;67318.16;5012340;28;20050;-79
2022/09/21 13:49:22;;;;;;;3.95;1.10;;;16.40;85.10;;;-147.18;100.00;67318.16;5029448;28;20808;-79
2022/09/21 13:52:57;;;;;;;4.05;0.93;;;16.40;84.60;;;-147.18;100.00;67318.16;5026758;28;20042;-79
2022/09/21 13:56:27;;;;;;;5.55;1.20;;;16.40;85.10;;;-147.18;100.00;67318.16;5015154;28;20466;-79
2022/09/21 14:00:15;;;;;;;5.55;1.40;;;16.40;83.70;;;-147.18;100.00;67318.16;5006625;28;20096;-79
2022/09/21 14:03:48;;;;;;;3.35;0.98;;;16.50;84.50;;;-147.18;100.00;67318.16;5003206;28;20061;-79
2022/09/21 14:07:17;;;;;;;14.07;5.05;;;16.50;85.10;;;-147.18;100.00;67318.16;5006511;28;20055;-78
2022/09/21 14:10:55;;;;;;;6.55;1.55;;;16.40;84.10;;;-147.18;100.00;67318.16;5027759;28;20050;-79
2022/09/21 14:14:28;;;;;;;4.53;0.95;;;16.40;83.80;;;-147.18;100.00;67318.16;5013889;28;20379;-79
2022/09/21 14:18:23;;;;;;;4.22;1.10;;;16.50;83.90;;;-147.18;100.00;67318.16;5029631;28;20041;-79
2022/09/21 14:22:32;;;;;;;5.63;1.10;;;16.50;85.00;;;-147.18;100.00;67318.16;4968942;28;20058;-79
2022/09/21 14:26:32;;;;;;;5.20;1.08;;;16.50;84.10;;;-147.18;100.00;67318.16;5018968;28;20042;-79
2022/09/21 14:30:15;;;;;;;5.00;1.15;;;16.50;84.60;;;-147.18;100.00;67318.16;5030182;28;20116;-79